sensor_id;sensor_type;location;lat;lon;timestamp;temperature;humidity
45383;DHT22;42455;51.660;5.824;2023-11-21T00:00:33;10.2;98.5
45383;DHT22;42455;51.660;5.824;2023-11-21T00:05:39;10.3;98.5
45383;DHT22;42455;51.660;5.824;2023-11-21T00:10:45;10.3;98.5
45383;DHT22;42455;51.660;5.824;2023-11-21T00:15:52;10.3;98.5
45383;DHT22;42455;51.660;5.824;2023-11-21T00:20:58;10.4;98.5
45383;DHT22;42455;51.660;5.824;2023-11-21T00:26:04;10.4;98.5
45383;DHT22;42455;51.660;5.824;2023-11-21T00:31:10;10.4;98.5
45383;DHT22;42455;51.660;5.824;2023-11-21T00:36:17;10.4;98.5
45383;DHT22;42455;51.660;5.824;2023-11-21T00:41:23;10.4;98.5
45383;DHT22;42455;51.660;5.824;2023-11-21T00:46:29;10.4;98.5
45383;DHT22;42455;51.660;5.824;2023-11-21T00:51:35;10.3;98.5
45383;DHT22;42455;51.660;5.824;2023-11-21T00:56:41;10.3;98.5
45383;DHT22;42455;51.660;5.824;2023-11-21T01:01:48;10.2;98.5
45383;DHT22;42455;51.660;5.824;2023-11-21T01:06:54;10.2;98.5
45383;DHT22;42455;51.660;5.824;2023-11-21T01:12:00;10.1;98.5
45383;DHT22;42455;51.660;5.824;2023-11-21T01:17:06;10.1;98.5
45383;DHT22;42455;51.660;5.824;2023-11-21T01:22:12;10.1;98.5
45383;DHT22;42455;51.660;5.824;2023-11-21T01:27:19;10.0;98.5
45383;DHT22;42455;51.660;5.824;2023-11-21T01:32:25;10.0;98.5
45383;DHT22;42455;51.660;5.824;2023-11-21T01:37:31;10.0;98.5
45383;DHT22;42455;51.660;5.824;2023-11-21T01:42:37;10.0;98.5
45383;DHT22;42455;51.660;5.824;2023-11-21T01:47:44;10.0;98.5
45383;DHT22;42455;51.660;5.824;2023-11-21T01:52:50;10.0;98.5
45383;DHT22;42455;51.660;5.824;2023-11-21T01:57:56;10.0;98.5
45383;DHT22;42455;51.660;5.824;2023-11-21T02:03:02;10.0;98.5
45383;DHT22;42455;51.660;5.824;2023-11-21T02:08:08;10.0;98.5
45383;DHT22;42455;51.660;5.824;2023-11-21T02:13:14;10.0;98.5
45383;DHT22;42455;51.660;5.824;2023-11-21T02:18:21;10.0;98.5
45383;DHT22;42455;51.660;5.824;2023-11-21T02:23:27;10.0;98.5
45383;DHT22;42455;51.660;5.824;2023-11-21T02:28:33;10.0;98.5
45383;DHT22;42455;51.660;5.824;2023-11-21T02:33:39;10.1;98.5
45383;DHT22;42455;51.660;5.824;2023-11-21T02:38:46;10.1;98.5
45383;DHT22;42455;51.660;5.824;2023-11-21T02:43:52;10.0;98.5
45383;DHT22;42455;51.660;5.824;2023-11-21T02:48:58;10.1;98.5
45383;DHT22;42455;51.660;5.824;2023-11-21T02:54:05;10.1;98.5
45383;DHT22;42455;51.660;5.824;2023-11-21T02:59:10;10.1;98.5
45383;DHT22;42455;51.660;5.824;2023-11-21T03:04:17;10.1;98.5
45383;DHT22;42455;51.660;5.824;2023-11-21T03:09:23;10.1;98.5
45383;DHT22;42455;51.660;5.824;2023-11-21T03:14:29;10.1;98.5
45383;DHT22;42455;51.660;5.824;2023-11-21T03:19:35;10.0;98.5
45383;DHT22;42455;51.660;5.824;2023-11-21T03:24:41;10.1;98.5
45383;DHT22;42455;51.660;5.824;2023-11-21T03:29:48;10.1;98.5
45383;DHT22;42455;51.660;5.824;2023-11-21T03:34:59;10.0;98.5
45383;DHT22;42455;51.660;5.824;2023-11-21T03:40:00;10.1;98.5
45383;DHT22;42455;51.660;5.824;2023-11-21T03:45:06;10.1;98.5
45383;DHT22;42455;51.660;5.824;2023-11-21T03:50:13;10.1;98.5
45383;DHT22;42455;51.660;5.824;2023-11-21T03:55:19;10.1;98.5
45383;DHT22;42455;51.660;5.824;2023-11-21T04:00:25;10.1;98.5
45383;DHT22;42455;51.660;5.824;2023-11-21T04:05:31;10.1;98.5
45383;DHT22;42455;51.660;5.824;2023-11-21T04:10:37;10.1;98.5
45383;DHT22;42455;51.660;5.824;2023-11-21T04:15:44;10.0;98.5
45383;DHT22;42455;51.660;5.824;2023-11-21T04:20:50;10.0;98.5
45383;DHT22;42455;51.660;5.824;2023-11-21T04:25:56;10.0;98.5
45383;DHT22;42455;51.660;5.824;2023-11-21T04:31:02;10.0;98.5
45383;DHT22;42455;51.660;5.824;2023-11-21T04:36:08;10.0;98.5
45383;DHT22;42455;51.660;5.824;2023-11-21T04:41:15;10.0;98.5
45383;DHT22;42455;51.660;5.824;2023-11-21T04:46:21;10.0;98.5
45383;DHT22;42455;51.660;5.824;2023-11-21T04:51:27;10.0;98.5
45383;DHT22;42455;51.660;5.824;2023-11-21T04:56:33;10.0;98.5
45383;DHT22;42455;51.660;5.824;2023-11-21T05:01:38;10.0;98.5
45383;DHT22;42455;51.660;5.824;2023-11-21T05:06:45;10.0;98.5
45383;DHT22;42455;51.660;5.824;2023-11-21T05:11:51;10.0;98.5
45383;DHT22;42455;51.660;5.824;2023-11-21T05:16:57;10.0;98.5
45383;DHT22;42455;51.660;5.824;2023-11-21T05:22:03;10.0;98.5
45383;DHT22;42455;51.660;5.824;2023-11-21T05:27:09;10.0;98.5
45383;DHT22;42455;51.660;5.824;2023-11-21T05:32:16;10.0;98.5
45383;DHT22;42455;51.660;5.824;2023-11-21T05:37:22;10.0;98.5
45383;DHT22;42455;51.660;5.824;2023-11-21T05:42:28;10.0;98.5
45383;DHT22;42455;51.660;5.824;2023-11-21T05:47:35;10.0;98.5
45383;DHT22;42455;51.660;5.824;2023-11-21T05:52:41;10.0;98.5
45383;DHT22;42455;51.660;5.824;2023-11-21T05:57:47;10.0;98.5
45383;DHT22;42455;51.660;5.824;2023-11-21T06:02:53;10.0;98.5
45383;DHT22;42455;51.660;5.824;2023-11-21T06:07:59;10.0;98.5
45383;DHT22;42455;51.660;5.824;2023-11-21T06:13:05;10.0;98.5
45383;DHT22;42455;51.660;5.824;2023-11-21T06:18:12;10.0;98.5
45383;DHT22;42455;51.660;5.824;2023-11-21T06:23:18;10.0;98.5
45383;DHT22;42455;51.660;5.824;2023-11-21T06:28:24;10.0;98.5
45383;DHT22;42455;51.660;5.824;2023-11-21T06:33:30;10.0;98.5
45383;DHT22;42455;51.660;5.824;2023-11-21T06:38:36;10.0;98.5
45383;DHT22;42455;51.660;5.824;2023-11-21T06:43:43;10.0;98.5
45383;DHT22;42455;51.660;5.824;2023-11-21T06:48:49;10.0;98.5
45383;DHT22;42455;51.660;5.824;2023-11-21T06:53:55;10.0;98.5
45383;DHT22;42455;51.660;5.824;2023-11-21T06:59:01;10.0;98.5
45383;DHT22;42455;51.660;5.824;2023-11-21T07:04:07;10.0;98.5
45383;DHT22;42455;51.660;5.824;2023-11-21T07:09:14;9.9;98.5
45383;DHT22;42455;51.660;5.824;2023-11-21T07:14:20;10.0;98.5
45383;DHT22;42455;51.660;5.824;2023-11-21T07:19:26;10.0;98.5
45383;DHT22;42455;51.660;5.824;2023-11-21T07:24:32;10.0;98.5
45383;DHT22;42455;51.660;5.824;2023-11-21T07:29:38;10.0;98.5
45383;DHT22;42455;51.660;5.824;2023-11-21T07:34:45;10.0;98.5
45383;DHT22;42455;51.660;5.824;2023-11-21T07:39:51;10.1;98.5
45383;DHT22;42455;51.660;5.824;2023-11-21T07:44:57;10.1;98.5
45383;DHT22;42455;51.660;5.824;2023-11-21T07:50:04;10.1;98.5
45383;DHT22;42455;51.660;5.824;2023-11-21T07:55:10;10.1;98.5
45383;DHT22;42455;51.660;5.824;2023-11-21T08:05:22;10.2;98.5
45383;DHT22;42455;51.660;5.824;2023-11-21T08:10:28;10.3;98.5
45383;DHT22;42455;51.660;5.824;2023-11-21T08:15:34;10.3;98.5
45383;DHT22;42455;51.660;5.824;2023-11-21T08:20:41;10.3;98.5
45383;DHT22;42455;51.660;5.824;2023-11-21T08:25:47;10.3;98.5
45383;DHT22;42455;51.660;5.824;2023-11-21T08:30:53;10.3;98.5
45383;DHT22;42455;51.660;5.824;2023-11-21T08:35:59;10.4;98.5
45383;DHT22;42455;51.660;5.824;2023-11-21T08:41:05;10.4;98.5
45383;DHT22;42455;51.660;5.824;2023-11-21T08:46:12;10.5;98.5
45383;DHT22;42455;51.660;5.824;2023-11-21T08:51:18;10.5;98.5
45383;DHT22;42455;51.660;5.824;2023-11-21T08:56:24;10.5;98.5
45383;DHT22;42455;51.660;5.824;2023-11-21T09:01:30;10.6;98.5
45383;DHT22;42455;51.660;5.824;2023-11-21T09:06:36;10.7;98.5
45383;DHT22;42455;51.660;5.824;2023-11-21T09:11:43;10.7;98.5
45383;DHT22;42455;51.660;5.824;2023-11-21T09:16:49;10.8;98.5
45383;DHT22;42455;51.660;5.824;2023-11-21T09:21:55;10.8;98.5
45383;DHT22;42455;51.660;5.824;2023-11-21T09:27:01;10.9;98.5
45383;DHT22;42455;51.660;5.824;2023-11-21T09:32:07;10.9;98.5
45383;DHT22;42455;51.660;5.824;2023-11-21T09:37:14;11.0;98.5
45383;DHT22;42455;51.660;5.824;2023-11-21T09:42:46;11.1;98.5
45383;DHT22;42455;51.660;5.824;2023-11-21T09:47:26;11.1;98.5
45383;DHT22;42455;51.660;5.824;2023-11-21T09:52:38;11.2;98.5
45383;DHT22;42455;51.660;5.824;2023-11-21T09:57:39;11.3;98.5
45383;DHT22;42455;51.660;5.824;2023-11-21T10:02:45;11.4;98.5
45383;DHT22;42455;51.660;5.824;2023-11-21T10:07:52;11.4;98.5
45383;DHT22;42455;51.660;5.824;2023-11-21T10:13:02;11.5;98.5
45383;DHT22;42455;51.660;5.824;2023-11-21T10:18:05;11.5;98.5
45383;DHT22;42455;51.660;5.824;2023-11-21T10:23:10;11.6;98.5
45383;DHT22;42455;51.660;5.824;2023-11-21T10:28:16;11.6;98.5
45383;DHT22;42455;51.660;5.824;2023-11-21T10:33:28;11.7;98.5
45383;DHT22;42455;51.660;5.824;2023-11-21T10:38:27;11.7;98.5
45383;DHT22;42455;51.660;5.824;2023-11-21T10:43:33;11.8;98.5
45383;DHT22;42455;51.660;5.824;2023-11-21T10:48:40;11.8;98.5
45383;DHT22;42455;51.660;5.824;2023-11-21T10:53:46;11.8;98.5
45383;DHT22;42455;51.660;5.824;2023-11-21T10:58:52;11.8;98.5
45383;DHT22;42455;51.660;5.824;2023-11-21T11:03:59;11.9;98.5
45383;DHT22;42455;51.660;5.824;2023-11-21T11:09:04;11.9;98.5
45383;DHT22;42455;51.660;5.824;2023-11-21T11:14:11;12.0;98.5
45383;DHT22;42455;51.660;5.824;2023-11-21T11:19:17;12.1;98.5
45383;DHT22;42455;51.660;5.824;2023-11-21T11:27:24;12.2;98.5
45383;DHT22;42455;51.660;5.824;2023-11-21T11:35:24;12.2;98.5
45383;DHT22;42455;51.660;5.824;2023-11-21T11:37:25;12.2;98.5
45383;DHT22;42455;51.660;5.824;2023-11-21T11:39:42;12.2;98.5
45383;DHT22;42455;51.660;5.824;2023-11-21T11:44:56;12.2;98.5
45383;DHT22;42455;51.660;5.824;2023-11-21T11:49:56;12.3;98.5
45383;DHT22;42455;51.660;5.824;2023-11-21T11:55:01;12.4;98.5
45383;DHT22;42455;51.660;5.824;2023-11-21T12:00:14;12.4;98.5
45383;DHT22;42455;51.660;5.824;2023-11-21T12:05:14;12.4;98.5
45383;DHT22;42455;51.660;5.824;2023-11-21T12:10:20;12.4;98.5
45383;DHT22;42455;51.660;5.824;2023-11-21T12:15:25;12.4;98.5
45383;DHT22;42455;51.660;5.824;2023-11-21T12:20:32;12.4;98.5
45383;DHT22;42455;51.660;5.824;2023-11-21T12:25:38;12.3;98.5
45383;DHT22;42455;51.660;5.824;2023-11-21T12:30:44;12.3;98.5
45383;DHT22;42455;51.660;5.824;2023-11-21T12:35:50;12.3;98.5
45383;DHT22;42455;51.660;5.824;2023-11-21T12:40:56;12.3;98.5
45383;DHT22;42455;51.660;5.824;2023-11-21T12:46:06;12.3;98.5
45383;DHT22;42455;51.660;5.824;2023-11-21T12:51:09;12.3;98.5
45383;DHT22;42455;51.660;5.824;2023-11-21T12:56:15;12.4;98.5
45383;DHT22;42455;51.660;5.824;2023-11-21T13:01:25;12.4;98.5
45383;DHT22;42455;51.660;5.824;2023-11-21T13:06:27;12.4;98.5
45383;DHT22;42455;51.660;5.824;2023-11-21T13:11:33;12.5;98.5
45383;DHT22;42455;51.660;5.824;2023-11-21T13:16:40;12.5;98.5
45383;DHT22;42455;51.660;5.824;2023-11-21T13:21:46;12.5;98.5
45383;DHT22;42455;51.660;5.824;2023-11-21T13:26:52;12.5;98.5
45383;DHT22;42455;51.660;5.824;2023-11-21T13:31:58;12.5;98.5
45383;DHT22;42455;51.660;5.824;2023-11-21T13:37:05;12.5;98.5
45383;DHT22;42455;51.660;5.824;2023-11-21T13:42:11;12.5;98.5
45383;DHT22;42455;51.660;5.824;2023-11-21T13:47:17;12.6;98.5
45383;DHT22;42455;51.660;5.824;2023-11-21T13:52:23;12.6;98.5
45383;DHT22;42455;51.660;5.824;2023-11-21T13:57:29;12.6;98.5
45383;DHT22;42455;51.660;5.824;2023-11-21T14:02:36;12.7;98.5
45383;DHT22;42455;51.660;5.824;2023-11-21T14:07:42;12.7;98.5
45383;DHT22;42455;51.660;5.824;2023-11-21T14:17:54;12.6;98.5
45383;DHT22;42455;51.660;5.824;2023-11-21T14:23:00;12.6;98.5
45383;DHT22;42455;51.660;5.824;2023-11-21T14:28:07;12.5;98.5
45383;DHT22;42455;51.660;5.824;2023-11-21T14:33:13;12.5;98.5
45383;DHT22;42455;51.660;5.824;2023-11-21T14:38:19;12.4;98.5
45383;DHT22;42455;51.660;5.824;2023-11-21T14:43:25;12.4;98.5
45383;DHT22;42455;51.660;5.824;2023-11-21T14:48:31;12.4;98.5
45383;DHT22;42455;51.660;5.824;2023-11-21T14:53:38;12.4;98.5
45383;DHT22;42455;51.660;5.824;2023-11-21T14:58:44;12.4;98.5
45383;DHT22;42455;51.660;5.824;2023-11-21T15:03:50;12.4;98.5
45383;DHT22;42455;51.660;5.824;2023-11-21T15:08:57;12.4;98.5
45383;DHT22;42455;51.660;5.824;2023-11-21T15:14:02;12.3;98.5
45383;DHT22;42455;51.660;5.824;2023-11-21T15:19:09;12.4;98.5
45383;DHT22;42455;51.660;5.824;2023-11-21T15:24:15;12.3;98.5
45383;DHT22;42455;51.660;5.824;2023-11-21T15:29:21;12.3;98.5
45383;DHT22;42455;51.660;5.824;2023-11-21T15:34:27;12.3;98.5
45383;DHT22;42455;51.660;5.824;2023-11-21T15:39:33;12.2;98.5
45383;DHT22;42455;51.660;5.824;2023-11-21T15:44:40;12.1;98.5
45383;DHT22;42455;51.660;5.824;2023-11-21T15:49:46;12.1;98.5
45383;DHT22;42455;51.660;5.824;2023-11-21T15:54:52;12.0;98.5
45383;DHT22;42455;51.660;5.824;2023-11-21T15:59:58;12.0;98.5
45383;DHT22;42455;51.660;5.824;2023-11-21T16:05:04;11.9;98.5
45383;DHT22;42455;51.660;5.824;2023-11-21T16:10:10;11.8;98.5
45383;DHT22;42455;51.660;5.824;2023-11-21T16:15:16;11.8;98.5
45383;DHT22;42455;51.660;5.824;2023-11-21T16:20:22;11.7;98.5
45383;DHT22;42455;51.660;5.824;2023-11-21T16:25:29;11.7;98.5
45383;DHT22;42455;51.660;5.824;2023-11-21T16:30:35;11.6;98.5
45383;DHT22;42455;51.660;5.824;2023-11-21T16:35:40;11.6;98.5
45383;DHT22;42455;51.660;5.824;2023-11-21T16:40:46;11.5;98.5
45383;DHT22;42455;51.660;5.824;2023-11-21T16:45:52;11.4;98.5
45383;DHT22;42455;51.660;5.824;2023-11-21T16:50:58;11.3;98.5
45383;DHT22;42455;51.660;5.824;2023-11-21T16:56:05;11.2;98.5
45383;DHT22;42455;51.660;5.824;2023-11-21T17:01:11;11.1;98.5
45383;DHT22;42455;51.660;5.824;2023-11-21T17:06:17;11.0;98.5
45383;DHT22;42455;51.660;5.824;2023-11-21T17:11:23;11.0;98.5
45383;DHT22;42455;51.660;5.824;2023-11-21T17:16:29;10.9;98.5
45383;DHT22;42455;51.660;5.824;2023-11-21T17:21:36;10.9;98.5
45383;DHT22;42455;51.660;5.824;2023-11-21T17:26:43;10.8;98.5
45383;DHT22;42455;51.660;5.824;2023-11-21T17:31:49;10.8;98.5
45383;DHT22;42455;51.660;5.824;2023-11-21T17:36:54;10.8;98.5
45383;DHT22;42455;51.660;5.824;2023-11-21T17:42:00;10.7;98.5
45383;DHT22;42455;51.660;5.824;2023-11-21T17:47:07;10.7;98.5
45383;DHT22;42455;51.660;5.824;2023-11-21T17:52:13;10.7;98.5
45383;DHT22;42455;51.660;5.824;2023-11-21T17:57:19;10.7;98.5
45383;DHT22;42455;51.660;5.824;2023-11-21T18:02:25;10.6;98.5
45383;DHT22;42455;51.660;5.824;2023-11-21T18:07:32;10.6;98.5
45383;DHT22;42455;51.660;5.824;2023-11-21T18:12:38;10.5;98.5
45383;DHT22;42455;51.660;5.824;2023-11-21T18:17:44;10.4;98.5
45383;DHT22;42455;51.660;5.824;2023-11-21T18:22:50;10.3;98.5
45383;DHT22;42455;51.660;5.824;2023-11-21T18:27:56;10.2;98.5
45383;DHT22;42455;51.660;5.824;2023-11-21T18:33:03;10.1;98.5
45383;DHT22;42455;51.660;5.824;2023-11-21T18:38:09;10.0;98.5
45383;DHT22;42455;51.660;5.824;2023-11-21T18:43:15;9.9;98.5
45383;DHT22;42455;51.660;5.824;2023-11-21T18:48:21;9.8;98.5
45383;DHT22;42455;51.660;5.824;2023-11-21T18:53:27;9.7;98.5
45383;DHT22;42455;51.660;5.824;2023-11-21T18:58:34;9.6;98.5
45383;DHT22;42455;51.660;5.824;2023-11-21T19:03:41;9.6;98.5
45383;DHT22;42455;51.660;5.824;2023-11-21T19:08:46;9.5;98.5
45383;DHT22;42455;51.660;5.824;2023-11-21T19:13:52;9.5;98.5
45383;DHT22;42455;51.660;5.824;2023-11-21T19:18:58;9.5;98.5
45383;DHT22;42455;51.660;5.824;2023-11-21T19:24:05;9.5;98.5
45383;DHT22;42455;51.660;5.824;2023-11-21T19:29:11;9.5;98.5
45383;DHT22;42455;51.660;5.824;2023-11-21T19:34:17;9.5;98.5
45383;DHT22;42455;51.660;5.824;2023-11-21T19:39:23;9.5;98.5
45383;DHT22;42455;51.660;5.824;2023-11-21T19:44:30;9.4;98.5
45383;DHT22;42455;51.660;5.824;2023-11-21T19:49:36;9.4;98.5
45383;DHT22;42455;51.660;5.824;2023-11-21T19:59:48;9.3;98.5
45383;DHT22;42455;51.660;5.824;2023-11-21T20:04:54;9.3;98.5
45383;DHT22;42455;51.660;5.824;2023-11-21T20:10:01;9.2;98.5
45383;DHT22;42455;51.660;5.824;2023-11-21T20:15:07;9.2;98.5
45383;DHT22;42455;51.660;5.824;2023-11-21T20:20:13;9.1;98.5
45383;DHT22;42455;51.660;5.824;2023-11-21T20:25:19;9.1;98.5
45383;DHT22;42455;51.660;5.824;2023-11-21T20:30:26;9.0;98.5
45383;DHT22;42455;51.660;5.824;2023-11-21T20:35:32;8.9;98.5
45383;DHT22;42455;51.660;5.824;2023-11-21T20:40:38;8.8;98.5
45383;DHT22;42455;51.660;5.824;2023-11-21T20:45:44;8.8;98.5
45383;DHT22;42455;51.660;5.824;2023-11-21T20:50:50;8.7;98.5
45383;DHT22;42455;51.660;5.824;2023-11-21T20:55:56;8.7;98.5
45383;DHT22;42455;51.660;5.824;2023-11-21T21:01:03;8.6;98.5
45383;DHT22;42455;51.660;5.824;2023-11-21T21:06:09;8.5;98.5
45383;DHT22;42455;51.660;5.824;2023-11-21T21:11:17;8.5;98.5
45383;DHT22;42455;51.660;5.824;2023-11-21T21:16:22;8.4;98.5
45383;DHT22;42455;51.660;5.824;2023-11-21T21:21:32;8.4;98.5
45383;DHT22;42455;51.660;5.824;2023-11-21T21:26:34;8.3;98.5
45383;DHT22;42455;51.660;5.824;2023-11-21T21:31:40;8.2;98.5
45383;DHT22;42455;51.660;5.824;2023-11-21T21:36:46;8.2;98.5
45383;DHT22;42455;51.660;5.824;2023-11-21T21:41:52;8.1;98.5
45383;DHT22;42455;51.660;5.824;2023-11-21T21:46:58;8.1;98.5
45383;DHT22;42455;51.660;5.824;2023-11-21T21:52:05;8.0;98.5
45383;DHT22;42455;51.660;5.824;2023-11-21T21:57:11;7.9;98.5
45383;DHT22;42455;51.660;5.824;2023-11-21T22:02:17;7.9;98.5
45383;DHT22;42455;51.660;5.824;2023-11-21T22:07:22;7.8;98.5
45383;DHT22;42455;51.660;5.824;2023-11-21T22:12:29;7.8;98.5
45383;DHT22;42455;51.660;5.824;2023-11-21T22:17:35;7.7;98.5
45383;DHT22;42455;51.660;5.824;2023-11-21T22:22:41;7.7;98.5
45383;DHT22;42455;51.660;5.824;2023-11-21T22:27:47;7.6;98.5
45383;DHT22;42455;51.660;5.824;2023-11-21T22:32:53;7.6;98.5
45383;DHT22;42455;51.660;5.824;2023-11-21T22:38:00;7.5;98.5
45383;DHT22;42455;51.660;5.824;2023-11-21T22:43:06;7.5;98.5
45383;DHT22;42455;51.660;5.824;2023-11-21T22:48:12;7.5;98.5
45383;DHT22;42455;51.660;5.824;2023-11-21T22:53:18;7.4;98.5
45383;DHT22;42455;51.660;5.824;2023-11-21T22:58:24;7.4;98.5
45383;DHT22;42455;51.660;5.824;2023-11-21T23:03:31;7.3;98.5
45383;DHT22;42455;51.660;5.824;2023-11-21T23:08:37;7.3;98.5
45383;DHT22;42455;51.660;5.824;2023-11-21T23:13:43;7.2;98.5
45383;DHT22;42455;51.660;5.824;2023-11-21T23:18:49;7.2;98.5
45383;DHT22;42455;51.660;5.824;2023-11-21T23:23:56;7.1;98.5
45383;DHT22;42455;51.660;5.824;2023-11-21T23:29:02;7.1;98.5
45383;DHT22;42455;51.660;5.824;2023-11-21T23:34:08;7.0;98.5
45383;DHT22;42455;51.660;5.824;2023-11-21T23:39:14;7.0;98.5
45383;DHT22;42455;51.660;5.824;2023-11-21T23:44:20;6.9;98.5
45383;DHT22;42455;51.660;5.824;2023-11-21T23:49:26;6.9;98.5
45383;DHT22;42455;51.660;5.824;2023-11-21T23:54:33;6.9;98.5
45383;DHT22;42455;51.660;5.824;2023-11-21T23:59:39;6.8;98.5
